Time;durP1;ratioP1;P1;durP2;ratioP2;P2;SDS_P1;SDS_P2;PMS_P1;PMS_P2;Temp;Humidity;BMP_temperature;BMP_pressure;BME280_temperature;BME280_humidity;BME280_pressure;Samples;Min_cycle;Max_cycle;Signal;HPM_P1;HPM_P2
2022/11/19 00:02:06;;;;;;;34.95;28.55;;;;;;;1.36;100.00;160926.47;5039879;28;20113;-59
2022/11/19 00:04:32;;;;;;;40.30;29.23;;;;;;;1.35;100.00;160923.78;5046771;28;20028;-60
2022/11/19 00:06:57;;;;;;;41.88;33.33;;;;;;;1.34;100.00;160921.09;5022189;28;20052;-61
2022/11/19 00:09:22;;;;;;;38.80;29.67;;;;;;;1.33;100.00;160918.41;5038709;28;20029;-60
2022/11/19 00:14:33;;;;;;;40.92;29.65;;;;;;;1.27;100.00;160905.00;5037554;28;20039;-62
2022/11/19 00:16:59;;;;;;;45.42;32.33;;;;;;;1.24;100.00;160896.94;5035866;28;20061;-62
2022/11/19 00:19:24;;;;;;;42.78;31.05;;;;;;;1.26;100.00;160901.00;5048225;28;20361;-62
2022/11/19 00:21:49;;;;;;;41.58;32.78;;;;;;;1.20;100.00;160884.84;5031347;28;20045;-62
2022/11/19 00:24:14;;;;;;;39.90;31.98;;;;;;;1.22;100.00;160891.59;5033239;28;20040;-61
2022/11/19 00:26:40;;;;;;;41.50;31.58;;;;;;;1.16;100.00;160875.47;5031260;28;20036;-62
2022/11/19 00:29:05;;;;;;;39.25;31.02;;;;;;;1.18;100.00;160880.84;5032878;28;20411;-62
2022/11/19 00:31:31;;;;;;;38.35;31.02;;;;;;;1.20;100.00;160886.22;5031513;28;20057;-62
2022/11/19 00:33:56;;;;;;;40.72;32.05;;;;;;;1.18;100.00;160879.53;5031997;28;20028;-61
2022/11/19 00:36:22;;;;;;;37.28;30.40;;;;;;;1.14;100.00;160870.13;5031344;28;20045;-62
2022/11/19 00:38:47;;;;;;;42.35;33.80;;;;;;;1.17;100.00;160878.16;5032064;28;20029;-62
2022/11/19 00:41:12;;;;;;;43.33;36.42;;;;;;;1.16;100.00;160875.47;5029889;28;20050;-62
2022/11/19 00:43:46;;;;;;;41.80;32.53;;;;;;;1.15;100.00;160872.81;5047430;28;20400;-62
2022/11/19 00:46:18;;;;;;;46.20;34.78;;;;;;;1.10;100.00;160859.38;5051159;28;20526;-61
2022/11/19 00:48:44;;;;;;;42.00;32.17;;;;;;;1.12;100.00;160864.75;5040506;28;20039;-62
2022/11/19 00:51:09;;;;;;;44.20;34.85;;;;;;;1.11;100.00;160862.06;5030726;28;20022;-62
2022/11/19 00:53:35;;;;;;;49.05;38.80;;;;;;;1.15;100.00;160872.81;5032513;28;20022;-62
2022/11/19 00:56:06;;;;;;;46.03;33.08;;;;;;;0.95;100.00;160821.84;5030740;28;20117;-62
2022/11/19 00:58:32;;;;;;;46.38;36.05;;;;;;;1.07;100.00;160851.38;5039013;28;20552;-62
2022/11/19 01:00:57;;;;;;;43.55;33.47;;;;;;;1.07;100.00;160852.69;5030939;28;20034;-61
2022/11/19 01:03:23;;;;;;;42.60;33.72;;;;;;;1.02;100.00;160837.91;5031960;28;20037;-62
2022/11/19 01:05:49;;;;;;;48.15;34.45;;;;;;;1.06;100.00;160848.69;5031926;28;20476;-62
2022/11/19 01:08:15;;;;;;;41.55;32.90;;;;;;;0.99;100.00;160831.22;5030588;28;20049;-62
2022/11/19 01:10:41;;;;;;;42.72;32.83;;;;;;;0.99;100.00;160831.22;5041193;28;20442;-62
2022/11/19 01:15:50;;;;;;;45.67;33.40;;;;;;;0.93;100.00;160816.47;5042963;28;20431;-62
2022/11/19 01:18:17;;;;;;;39.10;32.10;;;;;;;0.95;100.00;160821.84;5030240;28;20049;-62
2022/11/19 01:20:43;;;;;;;40.22;29.58;;;;;;;0.91;100.00;160809.75;5031782;28;20025;-61
2022/11/19 01:23:09;;;;;;;38.92;29.60;;;;;;;0.83;100.00;160789.66;5030507;28;20045;-62
2022/11/19 01:25:35;;;;;;;42.08;31.27;;;;;;;0.90;100.00;160808.44;5042588;28;20044;-62
2022/11/19 01:28:01;;;;;;;45.25;33.80;;;;;;;0.94;100.00;160819.16;5043891;28;20580;-62
2022/11/19 01:30:26;;;;;;;40.75;30.70;;;;;;;0.92;100.00;160813.81;5031553;28;20022;-62
2022/11/19 01:32:51;;;;;;;42.42;31.95;;;;;;;0.91;100.00;160811.13;5029889;28;20056;-62
2022/11/19 01:35:17;;;;;;;42.35;31.30;;;;;;;0.92;100.00;160813.81;5031682;28;20534;-62
2022/11/19 01:37:42;;;;;;;46.70;34.95;;;;;;;0.94;100.00;160819.16;5031516;28;20033;-62
2022/11/19 01:40:09;;;;;;;36.67;30.27;;;;;;;0.99;100.00;160829.91;5031376;28;20025;-62
2022/11/19 01:42:50;;;;;;;43.58;30.52;;;;;;;0.94;100.00;160819.16;5029457;28;20115;-62
2022/11/19 01:45:35;;;;;;;38.33;30.13;;;;;;;0.91;100.00;160811.13;5031493;28;20124;-62
2022/11/19 01:48:22;;;;;;;41.53;33.55;;;;;;;0.88;100.00;160801.75;5029270;28;20045;-62
2022/11/19 01:50:51;;;;;;;38.08;29.85;;;;;;;0.91;100.00;160811.13;5031050;28;20033;-62
2022/11/19 01:53:18;;;;;;;42.10;33.38;;;;;;;0.90;100.00;160807.06;5029487;28;20496;-62
2022/11/19 01:55:45;;;;;;;39.50;32.50;;;;;;;0.86;100.00;160796.38;5030651;28;20481;-62
2022/11/19 01:58:13;;;;;;;37.80;31.45;;;;;;;0.87;100.00;160800.38;5031052;28;20508;-61
2022/11/19 02:00:39;;;;;;;37.17;31.55;;;;;;;0.89;100.00;160805.75;5030994;28;20171;-61
2022/11/19 02:03:04;;;;;;;42.22;32.45;;;;;;;0.84;100.00;160792.34;5029546;28;20484;-61
2022/11/19 02:05:30;;;;;;;42.45;32.45;;;;;;;0.88;100.00;160803.06;5036015;28;20071;-61
2022/11/19 02:07:57;;;;;;;37.55;27.52;;;;;;;0.83;100.00;160789.66;5045162;28;20041;-61
2022/11/19 02:10:32;;;;;;;42.28;33.78;;;;;;;0.82;100.00;160785.66;5030749;28;20036;-61
2022/11/19 02:13:07;;;;;;;44.05;31.60;;;;;;;0.73;100.00;160764.19;5028250;28;20450;-61
2022/11/19 02:15:52;;;;;;;43.28;31.60;;;;;;;0.81;100.00;160784.28;5025421;28;20048;-61
2022/11/19 02:18:54;;;;;;;41.13;30.00;;;;;;;0.83;100.00;160789.66;5029440;28;20049;-61
2022/11/19 02:21:36;;;;;;;40.05;30.70;;;;;;;0.80;100.00;160781.59;5027583;28;20041;-61
2022/11/19 02:24:47;;;;;;;39.50;30.73;;;;;;;0.80;100.00;160781.59;5010494;28;20572;-61
2022/11/19 02:27:15;;;;;;;41.28;31.58;;;;;;;0.76;100.00;160770.91;5009506;28;20046;-61
2022/11/19 02:29:58;;;;;;;43.37;32.60;;;;;;;0.81;100.00;160784.28;5028096;28;20033;-61
2022/11/19 02:32:33;;;;;;;41.40;32.05;;;;;;;0.74;100.00;160765.53;5028903;28;20056;-61
2022/11/19 02:35:25;;;;;;;37.85;29.67;;;;;;;0.80;100.00;160781.59;5049214;28;20024;-61
2022/11/19 02:38:08;;;;;;;41.55;31.00;;;;;;;0.82;100.00;160786.97;5035863;28;20080;-61
2022/11/19 02:40:41;;;;;;;40.42;30.40;;;;;;;0.79;100.00;160778.91;5030606;28;20033;-61
2022/11/19 02:43:19;;;;;;;41.83;34.13;;;;;;;0.79;100.00;160780.28;5029062;28;20054;-61
2022/11/19 02:46:00;;;;;;;38.77;28.73;;;;;;;0.76;100.00;160772.22;5030114;28;20104;-61
2022/11/19 02:48:50;;;;;;;47.15;33.45;;;;;;;0.76;100.00;160770.91;5048843;28;20040;-61
2022/11/19 02:51:16;;;;;;;44.28;32.17;;;;;;;0.77;100.00;160774.91;5046000;28;20040;-61
2022/11/19 02:53:42;;;;;;;41.38;32.85;;;;;;;0.73;100.00;160764.19;5029743;28;20028;-61
2022/11/19 02:56:50;;;;;;;40.35;31.20;;;;;;;0.72;100.00;160760.13;5029175;28;20029;-61
2022/11/19 03:04:51;;;;;;;41.42;30.48;;;;;;;-146.58;100.00;69501.63;5030225;28;20140;-61
2022/11/19 03:07:18;;;;;;;38.50;32.05;;;;;;;-146.58;100.00;69501.63;5028622;28;20500;-61
2022/11/19 03:09:51;;;;;;;44.30;30.75;;;;;;;-146.58;100.00;69501.63;5029917;28;20041;-62
2022/11/19 03:12:29;;;;;;;40.70;31.35;;;;;;;-146.58;100.00;69501.63;5029183;28;20132;-61
2022/11/19 03:18:05;;;;;;;45.05;31.42;;;;;;;-146.58;100.00;69501.63;5046324;28;20155;-62
2022/11/19 03:20:36;;;;;;;43.15;30.52;;;;;;;-146.58;100.00;69501.63;5030463;28;20021;-62
2022/11/19 03:23:11;;;;;;;43.47;29.27;;;;;;;-146.58;100.00;69501.63;5028246;28;20451;-61
2022/11/19 03:25:43;;;;;;;45.45;33.72;;;;;;;-146.58;100.00;69501.63;5029792;28;20030;-61
2022/11/19 03:28:12;;;;;;;50.17;31.35;;;;;;;-146.58;100.00;69501.63;5028521;28;20045;-61
2022/11/19 03:30:38;;;;;;;;;;;;;;;-146.58;100.00;69501.63;5010873;28;20400;-62
2022/11/19 03:33:07;;;;;;;41.30;30.95;;;;;;;-146.58;100.00;69501.63;5008971;28;19924;-61
2022/11/19 03:35:40;;;;;;;43.35;30.23;;;;;;;-146.58;100.00;69501.63;5025608;28;20056;-61
2022/11/19 03:38:10;;;;;;;46.40;31.77;;;;;;;-146.58;100.00;69501.63;5028806;28;20037;-61
2022/11/19 03:40:36;;;;;;;45.00;32.85;;;;;;;0.74;100.00;160765.53;5030014;28;20026;-62
2022/11/19 03:43:04;;;;;;;42.50;32.22;;;;;;;0.42;100.00;160682.38;5028383;28;20861;-61
2022/11/19 03:45:39;;;;;;;50.65;35.88;;;;;;;0.46;100.00;160693.13;5029393;28;20034;-61
2022/11/19 03:48:05;;;;;;;38.83;31.35;;;;;;;0.37;100.00;160669.00;5028261;28;20090;-61
2022/11/19 03:50:39;;;;;;;46.22;32.05;;;;;;;0.41;100.00;160679.75;5030949;28;20033;-61
2022/11/19 03:53:05;;;;;;;44.65;31.85;;;;;;;0.32;100.00;160656.94;5031771;28;20048;-61
2022/11/19 03:55:36;;;;;;;50.33;32.58;;;;;;;0.36;100.00;160666.31;5033883;28;20038;-61
2022/11/19 03:58:08;;;;;;;41.05;32.28;;;;;;;0.30;100.00;160652.91;5037988;28;20115;-61
2022/11/19 04:00:33;;;;;;;44.08;32.53;;;;;;;0.25;100.00;160639.53;5034392;28;20033;-61
2022/11/19 04:02:59;;;;;;;43.83;32.10;;;;;;;0.23;100.00;160632.78;5031980;28;20064;-61
2022/11/19 04:05:24;;;;;;;44.60;30.00;;;;;;;0.23;100.00;160634.16;5033371;28;20112;-61
2022/11/19 04:07:50;;;;;;;41.75;30.90;;;;;;;0.17;100.00;160618.09;5031202;28;20092;-61
2022/11/19 04:10:15;;;;;;;39.33;30.30;;;;;;;0.11;100.00;160602.00;5033479;28;20032;-61
2022/11/19 04:12:41;;;;;;;40.83;30.63;;;;;;;0.12;100.00;160604.66;5031743;28;20435;-62
2022/11/19 04:15:08;;;;;;;45.65;32.08;;;;;;;0.11;100.00;160602.00;5029607;28;20036;-61
2022/11/19 04:17:34;;;;;;;45.28;31.13;;;;;;;0.13;100.00;160608.69;5032029;28;20144;-62
2022/11/19 04:19:59;;;;;;;43.95;30.55;;;;;;;0.13;100.00;160607.34;5033112;28;20382;-61
2022/11/19 04:22:24;;;;;;;41.60;31.05;;;;;;;0.11;100.00;160602.00;5031605;28;20042;-60
2022/11/19 04:24:50;;;;;;;43.33;31.90;;;;;;;0.11;100.00;160602.00;5032880;28;20029;-60
2022/11/19 04:27:15;;;;;;;38.97;28.85;;;;;;;0.06;100.00;160588.56;5031593;28;20044;-60
2022/11/19 04:29:40;;;;;;;41.50;31.52;;;;;;;0.01;100.00;160576.50;5032452;28;20400;-60
2022/11/19 04:32:06;;;;;;;40.30;28.70;;;;;;;-0.02;100.00;160568.50;5031329;28;20045;-60
2022/11/19 04:34:31;;;;;;;41.78;32.85;;;;;;;-0.08;100.00;160552.41;5032987;28;20026;-60
2022/11/19 04:36:56;;;;;;;40.90;28.92;;;;;;;-0.11;100.00;160544.38;5030902;28;20037;-60
2022/11/19 04:39:22;;;;;;;49.28;34.50;;;;;;;-0.15;100.00;160534.97;5036565;28;20021;-60
2022/11/19 04:41:47;;;;;;;42.40;30.25;;;;;;;-0.12;100.00;160543.03;5031288;28;20038;-60
2022/11/19 04:44:12;;;;;;;39.33;29.45;;;;;;;-0.11;100.00;160545.69;5032210;28;20064;-60
2022/11/19 04:46:38;;;;;;;38.95;26.08;;;;;;;-0.15;100.00;160534.97;5031260;28;20056;-61
2022/11/19 04:49:03;;;;;;;34.72;27.58;;;;;;;-0.11;100.00;160545.69;5032505;28;20072;-60
2022/11/19 04:51:28;;;;;;;39.85;29.98;;;;;;;-0.18;100.00;160526.91;5031038;28;20427;-60
2022/11/19 04:53:54;;;;;;;40.03;29.25;;;;;;;-0.30;100.00;160494.78;5032396;28;20079;-60
2022/11/19 04:56:19;;;;;;;37.88;28.98;;;;;;;-0.27;100.00;160502.84;5011796;28;20038;-60
2022/11/19 04:58:45;;;;;;;38.88;27.08;;;;;;;-0.28;100.00;160500.16;5031646;28;20029;-60
2022/11/19 05:01:10;;;;;;;47.53;32.72;;;;;;;-0.34;100.00;160485.41;5031087;28;20022;-61
2022/11/19 05:03:35;;;;;;;41.55;30.30;;;;;;;-0.28;100.00;160500.16;5032640;28;20028;-61
2022/11/19 05:06:01;;;;;;;36.70;29.60;;;;;;;-0.29;100.00;160498.78;5030570;28;20021;-61
2022/11/19 05:08:26;;;;;;;37.72;27.60;;;;;;;-0.32;100.00;160492.09;5032193;28;20025;-61
2022/11/19 05:10:51;;;;;;;42.47;32.28;;;;;;;-0.35;100.00;160484.09;5032122;28;20037;-60
2022/11/19 05:13:17;;;;;;;40.33;27.95;;;;;;;-0.35;100.00;160484.09;5047675;28;20048;-60
2022/11/19 05:15:42;;;;;;;44.20;30.42;;;;;;;-0.37;100.00;160478.72;5038296;28;20025;-60
2022/11/19 05:18:08;;;;;;;38.85;29.88;;;;;;;-0.39;100.00;160472.03;5030609;28;20115;-61
2022/11/19 05:20:33;;;;;;;48.40;32.60;;;;;;;-0.46;100.00;160454.59;5032125;28;20596;-61
2022/11/19 05:22:59;;;;;;;47.65;33.92;;;;;;;-0.45;100.00;160457.28;5030513;28;20541;-61
2022/11/19 05:25:24;;;;;;;40.83;29.83;;;;;;;-0.54;100.00;160434.50;5031891;28;20029;-61
2022/11/19 05:27:50;;;;;;;43.75;33.58;;;;;;;-0.52;100.00;160438.53;5029960;28;20045;-60
2022/11/19 05:30:16;;;;;;;40.72;32.13;;;;;;;-0.62;100.00;160411.72;5031275;28;20029;-61
2022/11/19 05:32:41;;;;;;;45.42;32.05;;;;;;;-0.60;100.00;160417.09;5030280;28;20095;-60
2022/11/19 05:35:07;;;;;;;38.72;28.52;;;;;;;-0.65;100.00;160406.38;5032135;28;20025;-60
2022/11/19 05:37:32;;;;;;;48.17;29.55;;;;;;;-0.59;100.00;160421.09;5029547;28;20045;-61
2022/11/19 05:39:58;;;;;;;40.55;28.75;;;;;;;-0.66;100.00;160403.69;5031267;28;20032;-61
2022/11/19 05:42:23;;;;;;;43.10;29.63;;;;;;;-0.67;100.00;160401.03;5030159;28;20057;-61
2022/11/19 05:44:48;;;;;;;39.53;28.10;;;;;;;-0.69;100.00;160395.66;5030872;28;20038;-61
2022/11/19 05:47:15;;;;;;;43.00;29.33;;;;;;;-0.73;100.00;160384.94;5029865;28;20033;-61
2022/11/19 05:49:40;;;;;;;47.80;31.92;;;;;;;-0.75;100.00;160379.59;5031581;28;20037;-60
2022/11/19 05:52:05;;;;;;;43.78;30.48;;;;;;;-0.81;100.00;160363.53;5029610;28;20420;-61
2022/11/19 05:54:31;;;;;;;43.72;31.42;;;;;;;-0.84;100.00;160355.47;5031669;28;20018;-60
2022/11/19 05:56:56;;;;;;;43.38;29.77;;;;;;;-0.93;100.00;160331.41;5029715;28;20055;-61
2022/11/19 05:59:21;;;;;;;41.70;32.08;;;;;;;-1.03;100.00;160307.28;5031217;28;20032;-62
2022/11/19 06:01:47;;;;;;;42.22;28.60;;;;;;;-1.14;100.00;160277.78;5031226;28;20033;-62
2022/11/19 06:04:12;;;;;;;45.33;31.10;;;;;;;-1.25;100.00;160248.38;5051213;28;20025;-63
2022/11/19 06:06:38;;;;;;;38.30;28.70;;;;;;;-1.25;100.00;160248.38;5040089;28;20045;-62
2022/11/19 06:09:03;;;;;;;46.13;32.97;;;;;;;-1.43;100.00;160202.81;5031393;28;20028;-62
2022/11/19 06:11:47;;;;;;;43.53;30.20;;;;;;;-1.53;100.00;160177.41;5029863;28;20041;-63
2022/11/19 06:14:13;;;;;;;39.72;29.05;;;;;;;-1.60;100.00;160159.97;5030845;28;20021;-60
2022/11/19 06:16:39;;;;;;;44.75;30.45;;;;;;;-1.64;100.00;160149.28;5029442;28;20041;-60
2022/11/19 06:19:04;;;;;;;40.38;30.83;;;;;;;-1.76;100.00;160117.19;5041825;28;20039;-60
2022/11/19 06:21:30;;;;;;;43.63;30.45;;;;;;;-1.78;100.00;160113.16;5049420;28;20033;-60
2022/11/19 06:23:55;;;;;;;47.38;32.22;;;;;;;-1.83;100.00;160098.47;5041321;28;20113;-60
2022/11/19 06:26:25;;;;;;;38.30;30.52;;;;;;;-1.85;100.00;160093.09;5029286;28;20432;-61
2022/11/19 06:28:51;;;;;;;44.65;31.60;;;;;;;-1.91;100.00;160078.34;5030446;28;20079;-61
2022/11/19 06:31:16;;;;;;;42.33;28.40;;;;;;;-1.97;100.00;160063.63;5029571;28;20056;-60
2022/11/19 06:33:42;;;;;;;40.55;29.98;;;;;;;-2.01;100.00;160052.94;5030551;28;20032;-60
2022/11/19 06:36:07;;;;;;;41.55;28.25;;;;;;;-2.06;100.00;160039.56;5031037;28;20031;-61
2022/11/19 06:38:33;;;;;;;43.33;30.52;;;;;;;-2.12;100.00;160023.47;5035916;28;20037;-60
2022/11/19 06:40:58;;;;;;;40.72;27.17;;;;;;;-2.15;100.00;160015.47;5033809;28;20382;-59
2022/11/19 06:43:23;;;;;;;36.47;28.13;;;;;;;-2.19;100.00;160004.75;5045777;28;20723;-59
2022/11/19 06:45:49;;;;;;;40.90;27.73;;;;;;;-2.22;100.00;159996.75;5047142;28;20021;-59
2022/11/19 06:48:14;;;;;;;42.13;29.52;;;;;;;-2.27;100.00;159986.03;5032822;28;20042;-59
2022/11/19 06:50:39;;;;;;;39.67;28.48;;;;;;;-2.29;100.00;159980.72;5031159;28;20087;-59
2022/11/19 06:53:05;;;;;;;39.15;29.88;;;;;;;-2.28;100.00;159983.38;5009457;28;20034;-60
2022/11/19 06:55:30;;;;;;;40.35;27.95;;;;;;;-2.30;100.00;159978.03;5017263;28;20018;-59
2022/11/19 06:58:00;;;;;;;38.75;28.77;;;;;;;-2.34;100.00;159967.28;5028400;28;20041;-60
2022/11/19 07:00:26;;;;;;;40.15;28.25;;;;;;;-2.36;100.00;159960.63;5030852;28;20105;-59
2022/11/19 07:02:51;;;;;;;40.20;28.13;;;;;;;-2.39;100.00;159953.94;5033290;28;20040;-59
2022/11/19 07:05:16;;;;;;;40.03;29.67;;;;;;;-2.40;100.00;159951.25;5033168;28;20033;-60
2022/11/19 07:07:42;;;;;;;46.00;29.52;;;;;;;-2.42;100.00;159947.25;5028672;28;20451;-59
2022/11/19 07:10:07;;;;;;;40.95;29.08;;;;;;;-2.44;100.00;159940.56;5030344;28;20029;-59
2022/11/19 07:12:33;;;;;;;38.88;26.98;;;;;;;-2.48;100.00;159931.22;5028282;28;20041;-60
2022/11/19 07:14:58;;;;;;;42.50;28.10;;;;;;;-2.50;100.00;159924.53;5029979;28;20025;-60
2022/11/19 07:17:23;;;;;;;39.20;28.38;;;;;;;-2.50;100.00;159924.53;5028833;28;20037;-59
2022/11/19 07:19:48;;;;;;;39.53;28.00;;;;;;;-2.52;100.00;159919.16;5029312;28;20029;-60
2022/11/19 07:22:14;;;;;;;39.40;28.48;;;;;;;-2.53;100.00;159916.47;5027951;28;20111;-60
2022/11/19 07:24:39;;;;;;;36.13;27.25;;;;;;;-2.55;100.00;159913.78;5029998;28;20030;-59
2022/11/19 07:27:04;;;;;;;35.58;25.60;;;;;;;-2.55;100.00;159913.78;5028158;28;20496;-59
2022/11/19 07:29:30;;;;;;;40.30;27.08;;;;;;;-2.59;100.00;159903.13;5033575;28;20044;-60
2022/11/19 07:31:55;;;;;;;36.75;26.15;;;;;;;-2.55;100.00;159913.78;5032256;28;20041;-60
2022/11/19 07:34:20;;;;;;;36.05;25.92;;;;;;;-2.52;100.00;159919.16;5032098;28;20034;-59
2022/11/19 07:36:47;;;;;;;40.70;27.77;;;;;;;-2.51;100.00;159923.16;5031604;28;20087;-60
2022/11/19 07:39:12;;;;;;;34.00;26.08;;;;;;;-2.50;100.00;159925.84;5033423;28;20083;-60
2022/11/19 07:44:21;;;;;;;34.78;25.27;;;;;;;-2.45;100.00;159937.88;5033155;28;20052;-59
2022/11/19 07:46:46;;;;;;;38.08;26.15;;;;;;;-2.42;100.00;159947.25;5032014;28;20034;-59
2022/11/19 07:49:12;;;;;;;49.22;30.17;;;;;;;-2.38;100.00;159955.31;5023527;28;20029;-59
2022/11/19 07:51:37;;;;;;;36.25;28.75;;;;;;;-2.34;100.00;159967.28;5030895;28;20033;-59
2022/11/19 07:54:03;;;;;;;36.50;25.85;;;;;;;-2.28;100.00;159982.03;5032309;28;20029;-59
2022/11/19 07:56:28;;;;;;;35.58;25.02;;;;;;;-2.25;100.00;159991.38;5030298;28;20511;-59
2022/11/19 07:58:53;;;;;;;33.17;24.67;;;;;;;-2.21;100.00;159999.44;5032156;28;20041;-59
2022/11/19 08:01:21;;;;;;;42.42;27.85;;;;;;;-2.17;100.00;160011.47;5031752;28;20041;-59
2022/11/19 08:03:48;;;;;;;38.40;23.58;;;;;;;-2.13;100.00;160022.16;5032586;28;20104;-59
2022/11/19 08:06:15;;;;;;;30.15;23.08;;;;;;;-2.07;100.00;160036.91;5031299;28;20029;-59
2022/11/19 08:08:41;;;;;;;35.20;25.00;;;;;;;-2.03;100.00;160047.56;5033145;28;20029;-59
2022/11/19 08:11:07;;;;;;;33.10;24.42;;;;;;;-1.98;100.00;160061.00;5029687;28;20086;-59
2022/11/19 08:13:34;;;;;;;31.15;23.20;;;;;;;-1.95;100.00;160069.00;5032478;28;20029;-59
2022/11/19 08:16:01;;;;;;;31.85;23.30;;;;;;;-1.89;100.00;160083.72;5030115;28;20033;-59
2022/11/19 08:18:27;;;;;;;33.58;24.60;;;;;;;-1.85;100.00;160094.41;5028813;28;20125;-59
2022/11/19 08:20:52;;;;;;;35.05;22.48;;;;;;;-1.79;100.00;160109.13;5031913;28;20077;-59
2022/11/19 08:23:17;;;;;;;33.45;24.33;;;;;;;-1.77;100.00;160115.81;5031248;28;20053;-60
2022/11/19 08:25:43;;;;;;;29.85;21.98;;;;;;;-1.65;100.00;160146.63;5032191;28;20488;-60
2022/11/19 08:28:10;;;;;;;30.10;23.42;;;;;;;-1.56;100.00;160169.34;5031213;28;20061;-60
2022/11/19 08:30:36;;;;;;;30.85;20.45;;;;;;;-1.41;100.00;160208.19;5032334;28;20117;-60
2022/11/19 08:33:02;;;;;;;29.90;21.90;;;;;;;-1.25;100.00;160248.38;5030724;28;20049;-60
2022/11/19 08:35:27;;;;;;;32.03;25.48;;;;;;;-0.94;100.00;160330.03;5032743;28;20060;-59
2022/11/19 08:37:53;;;;;;;25.63;19.65;;;;;;;-0.52;100.00;160438.53;5030719;28;20052;-60
2022/11/19 08:40:18;;;;;;;26.15;22.85;;;;;;;-0.54;100.00;160434.50;5032583;28;20033;-60
2022/11/19 08:42:58;;;;;;;23.33;19.05;;;;;;;-0.57;100.00;160425.13;5030385;28;20053;-60
2022/11/19 08:45:26;;;;;;;30.60;24.05;;;;;;;-0.87;100.00;160347.47;5032926;28;20043;-60
2022/11/19 08:47:51;;;;;;;34.47;21.73;;;;;;;-0.67;100.00;160401.03;5030332;28;20041;-60
2022/11/19 08:50:17;;;;;;;24.20;18.80;;;;;;;-0.59;100.00;160419.78;5032110;28;20030;-60
2022/11/19 08:52:42;;;;;;;22.85;19.20;;;;;;;-0.57;100.00;160425.13;5030551;28;20037;-60
2022/11/19 08:55:08;;;;;;;41.88;29.33;;;;;;;-0.18;100.00;160526.91;5031957;28;20033;-60
2022/11/19 08:57:33;;;;;;;33.72;25.27;;;;;;;0.12;100.00;160604.66;5036161;28;20044;-59
2022/11/19 08:59:58;;;;;;;22.23;19.88;;;;;;;0.57;100.00;160722.59;5037724;28;20025;-59
2022/11/19 09:02:24;;;;;;;21.55;17.30;;;;;;;0.98;100.00;160827.22;5029960;28;20463;-59
2022/11/19 09:04:49;;;;;;;23.20;19.17;;;;;;;1.05;100.00;160845.97;5031599;28;20033;-60
2022/11/19 09:07:14;;;;;;;22.30;19.92;;;;;;;1.09;100.00;160856.69;5029656;28;20061;-60
2022/11/19 09:09:40;;;;;;;24.42;18.55;;;;;;;1.14;100.00;160870.13;5032396;28;20025;-60
2022/11/19 09:12:05;;;;;;;24.73;17.33;;;;;;;1.33;100.00;160919.78;5030009;28;20034;-60
2022/11/19 09:14:31;;;;;;;17.58;15.40;;;;;;;1.39;100.00;160934.50;5031732;28;20045;-60
2022/11/19 09:16:56;;;;;;;22.33;17.15;;;;;;;1.43;100.00;160945.25;5045591;28;20041;-60
2022/11/19 09:19:22;;;;;;;19.83;17.42;;;;;;;1.51;100.00;160966.72;5046478;28;20091;-60
2022/11/19 09:21:47;;;;;;;18.48;16.50;;;;;;;1.76;100.00;161031.09;5029942;28;20049;-60
2022/11/19 09:24:13;;;;;;;27.40;16.92;;;;;;;1.95;100.00;161079.41;5031412;28;20636;-60
2022/11/19 09:26:38;;;;;;;18.15;16.23;;;;;;;1.82;100.00;161047.22;5028603;28;20037;-60
2022/11/19 09:29:03;;;;;;;18.05;14.70;;;;;;;1.87;100.00;161059.25;5031496;28;20408;-59
2022/11/19 09:31:29;;;;;;;17.00;14.98;;;;;;;2.09;100.00;161117.00;5029884;28;20033;-60
2022/11/19 09:33:54;;;;;;;15.00;13.45;;;;;;;2.11;100.00;161121.00;5031249;28;20024;-60
2022/11/19 09:36:20;;;;;;;16.30;13.05;;;;;;;2.18;100.00;161139.78;5030045;28;20060;-60
2022/11/19 09:38:46;;;;;;;14.45;12.95;;;;;;;2.40;100.00;161197.53;5031614;28;20017;-60
2022/11/19 09:41:42;;;;;;;16.83;13.80;;;;;;;2.84;100.00;161311.63;5037373;28;20086;-60
2022/11/19 09:44:17;;;;;;;15.50;13.75;;;;;;;2.77;100.00;161294.19;5045590;28;20045;-60
2022/11/19 09:47:06;;;;;;;14.90;13.23;;;;;;;2.76;100.00;161291.50;5029484;28;20037;-60
2022/11/19 09:50:01;;;;;;;13.55;11.98;;;;;;;3.15;100.00;161392.22;5030571;28;20029;-60
2022/11/19 09:52:29;;;;;;;14.90;13.38;;;;;;;3.11;100.00;161382.81;5019149;28;20045;-60
2022/11/19 09:54:56;;;;;;;13.50;11.63;;;;;;;3.41;100.00;161459.41;5030295;28;20380;-60
2022/11/19 09:57:38;;;;;;;14.27;12.30;;;;;;;3.73;100.00;161544.03;5028949;28;20041;-60
2022/11/19 10:00:05;;;;;;;13.05;11.50;;;;;;;4.11;100.00;161643.47;5033414;28;20032;-60
2022/11/19 10:02:31;;;;;;;13.98;12.48;;;;;;;4.12;100.00;161644.81;5028744;28;20156;-60
2022/11/19 10:04:57;;;;;;;13.80;11.80;;;;;;;4.06;100.00;161630.00;5030512;28;20029;-60
2022/11/19 10:07:22;;;;;;;12.25;10.55;;;;;;;3.65;100.00;161522.53;5029451;28;20037;-60
2022/11/19 10:09:58;;;;;;;13.93;12.38;;;;;;;3.68;100.00;161529.25;5030264;28;20599;-60
2022/11/19 10:12:30;;;;;;;14.63;13.07;;;;;;;3.63;100.00;161517.13;5026910;28;20520;-60
2022/11/19 10:15:01;;;;;;;13.00;10.65;;;;;;;3.58;100.00;161503.72;5030550;28;20431;-60
2022/11/19 10:17:48;;;;;;;11.45;10.32;;;;;;;3.51;100.00;161484.91;5028776;28;20415;-60
2022/11/19 10:20:19;;;;;;;12.18;10.55;;;;;;;3.07;100.00;161372.09;5024924;28;20104;-58
2022/11/19 10:22:50;;;;;;;12.10;10.88;;;;;;;3.07;100.00;161372.09;5029094;28;20052;-58
2022/11/19 10:25:20;;;;;;;11.57;10.20;;;;;;;3.12;100.00;161385.50;5030270;28;20045;-57
2022/11/19 10:27:54;;;;;;;13.70;12.23;;;;;;;3.00;100.00;161354.59;5028458;28;20098;-60
2022/11/19 10:30:23;;;;;;;12.43;10.27;;;;;;;2.76;100.00;161291.50;5029937;28;20028;-60
2022/11/19 10:33:09;;;;;;;12.70;10.18;;;;;;;2.76;100.00;161291.50;5028764;28;20061;-60
2022/11/19 10:35:39;;;;;;;13.68;11.90;;;;;;;2.80;100.00;161302.22;5026872;28;20365;-60
2022/11/19 10:38:15;;;;;;;11.80;10.52;;;;;;;2.70;100.00;161275.41;5019584;28;20109;-60
2022/11/19 10:40:47;;;;;;;12.43;11.13;;;;;;;2.90;100.00;161326.41;5029973;28;20056;-60
2022/11/19 10:43:16;;;;;;;14.85;10.88;;;;;;;2.98;100.00;161349.22;5027798;28;20060;-60
2022/11/19 10:45:42;;;;;;;12.05;10.60;;;;;;;3.20;100.00;161404.31;5045035;28;20035;-60
2022/11/19 10:48:17;;;;;;;10.55;9.52;;;;;;;3.71;100.00;161538.63;5028445;28;20033;-60
2022/11/19 10:50:42;;;;;;;12.15;10.98;;;;;;;3.88;100.00;161581.66;5029011;28;20090;-60
2022/11/19 10:53:28;;;;;;;11.80;10.73;;;;;;;3.45;100.00;161471.50;5040376;28;20049;-60
2022/11/19 10:56:03;;;;;;;10.02;8.93;;;;;;;3.58;100.00;161503.72;5029778;28;20029;-60
2022/11/19 10:58:35;;;;;;;14.70;12.20;;;;;;;3.47;100.00;161475.50;5025609;28;20044;-59
2022/11/19 11:01:02;;;;;;;12.15;10.07;;;;;;;3.22;100.00;161409.69;5031798;28;20045;-60
2022/11/19 11:03:36;;;;;;;10.55;9.50;;;;;;;2.96;100.00;161342.50;5034092;28;20388;-60
2022/11/19 11:06:05;;;;;;;12.50;10.85;;;;;;;2.81;100.00;161303.59;5031873;28;20033;-59
2022/11/19 11:08:47;;;;;;;12.75;10.77;;;;;;;2.95;100.00;161339.81;5034043;28;20029;-60
2022/11/19 11:14:50;;;;;;;12.20;10.10;;;;;;;2.91;100.00;161329.09;5032384;28;20025;-60
2022/11/19 11:17:01;;;;;;;11.52;9.02;;;;;;;2.70;100.00;161275.41;5032113;28;20495;-60
2022/11/19 11:19:27;;;;;;;9.25;8.35;;;;;;;2.76;100.00;161291.50;5034512;28;20022;-60
2022/11/19 11:21:56;;;;;;;11.30;10.10;;;;;;;2.89;100.00;161325.09;5034866;28;20041;-60
2022/11/19 11:24:30;;;;;;;9.77;8.65;;;;;;;2.99;100.00;161350.59;5033493;28;20112;-60
2022/11/19 11:27:16;;;;;;;11.63;10.43;;;;;;;3.06;100.00;161369.41;5032475;28;20515;-60
2022/11/19 11:29:42;;;;;;;10.25;9.27;;;;;;;2.96;100.00;161342.50;5033088;28;20029;-60
2022/11/19 11:32:26;;;;;;;10.68;9.48;;;;;;;2.95;100.00;161339.81;5031825;28;20044;-57
2022/11/19 11:34:52;;;;;;;11.90;9.10;;;;;;;2.90;100.00;161326.41;5033602;28;20476;-60